Etusivu
METAR-TAF:

METAR-TAF

Lentoasemat :

La Grande/Union County Airport

La Grande, Oregon, Yhdysvallat

Leveyspiiri: 45-17N, Pituuspiiri: 118-00W, korkeus merenpinnasta: 827 m

Tämänhetkinen sää

Tämä raportti tehtiin 26 minuuttia sitten, kello 16.56 UTC
Tuuli 7 kn lännestä/luoteesta
Lämpötila 13°C
Kosteus 72%
Ilmanpaine 1004 hPa
Näkyvyys: 16.1 km
Muutamia pilviä 1900 ft:n korkeudessa

METAR: KLGD 191656Z AUTO 30007KT 10SM FEW019 13/08 A2966 RMK AO2 SLP186 T01330078

Aika: 10:22 (17:22 UTC)


TAF: puuttuu

Säähavainnot ja -ennusteet yli 4000 lentoasemalta (METAR- ja TAF-raportit).

Käytössä olevat sääasemat on merkitty karttaan keltaisilla ja punaisilla pisteillä.

Aseta hiiri pisteen päälle nähdäksesi sääaseman nimen.

Klikkaa sitten nähdäksesi säähavainnot ja -ennusteet.

Kartan vaihtaminen: klikkaa mustalla rastilla varustettuja vihreitä pisteitä, niin voit zoomata sisään; viivalla varustettua vihreää pistettä, niin voit zoomata ulos tai vihreitä nuolia, niin pääset viereisille kartoille.


METAR-TAF: